Time;durP1;ratioP1;P1;durP2;ratioP2;P2;SDS_P1;SDS_P2;PMS_P1;PMS_P2;Temp;Humidity;BMP_temperature;BMP_pressure;BME280_temperature;BME280_humidity;BME280_pressure;Samples;Min_cycle;Max_cycle;Signal;HPM_P1;HPM_P2
2022/02/02 00:04:28;;;;;;;8.68;2.90;;;;;;;0.33;48.33;99619.02;1781739;78;21588;-57
2022/02/02 00:07:11;;;;;;;7.92;3.22;;;;;;;0.30;48.32;99623.09;1759318;78;21034;-57
2022/02/02 00:09:33;;;;;;;6.65;3.65;;;;;;;0.27;48.29;99617.20;1767802;79;21039;-57
2022/02/02 00:17:18;;;;;;;10.28;3.15;;;;;;;0.20;48.42;99617.96;1774995;78;21031;-56
2022/02/02 00:19:53;;;;;;;7.42;2.75;;;;;;;0.16;48.63;99623.75;1744502;80;22241;-57
2022/02/02 00:22:15;;;;;;;8.50;3.22;;;;;;;0.13;48.49;99618.72;1774581;78;21041;-57
2022/02/02 00:24:55;;;;;;;7.08;2.95;;;;;;;0.13;48.49;99618.72;1779960;78;21388;-58
2022/02/02 00:27:10;;;;;;;8.00;3.30;;;;;;;0.12;48.39;99618.36;1774210;78;21210;-58
2022/02/02 00:29:43;;;;;;;8.00;3.35;;;;;;;0.12;48.39;99610.59;1776131;78;21976;-57
2022/02/02 00:33:02;;;;;;;6.08;2.70;;;;;;;0.13;48.43;99614.84;1781251;78;21062;-57
2022/02/02 00:34:38;;;;;;;9.38;3.33;;;;;;;0.15;48.37;99608.30;1756368;78;22208;-57
2022/02/02 00:37:04;;;;;;;9.38;2.80;;;;;;;0.10;48.49;99598.20;1769133;79;21109;-57
2022/02/02 00:39:31;;;;;;;6.12;2.90;;;;;;;0.10;48.47;99599.92;1752564;78;21269;-57
2022/02/02 00:41:57;;;;;;;5.67;2.40;;;;;;;0.05;48.29;99592.42;1773000;78;21090;-56
2022/02/02 00:44:25;;;;;;;6.95;2.95;;;;;;;0.01;48.44;99590.88;1771527;78;21054;-57
2022/02/02 00:46:53;;;;;;;7.30;3.00;;;;;;;-0.01;48.48;99590.13;1781390;78;21059;-57
2022/02/02 00:49:20;;;;;;;11.90;3.33;;;;;;;-0.03;48.59;99585.02;1778737;78;21543;-57
2022/02/02 00:51:47;;;;;;;6.80;2.98;;;;;;;-0.06;48.50;99581.75;1764168;78;22825;-57
2022/02/02 00:54:20;;;;;;;9.05;3.33;;;;;;;-0.09;48.54;99579.31;1746640;80;21051;-56
2022/02/02 00:56:48;;;;;;;7.53;3.08;;;;;;;-0.14;48.60;99578.23;1776286;78;21031;-57
2022/02/02 00:59:15;;;;;;;14.00;3.85;;;;;;;-0.14;48.66;99575.65;1748057;80;21117;-59
2022/02/02 01:01:41;;;;;;;12.13;2.75;;;;;;;-0.21;48.55;99574.28;1774933;78;21135;-60
2022/02/02 01:04:08;;;;;;;6.78;2.98;;;;;;;-0.28;48.94;99565.98;1773741;78;21101;-57
2022/02/02 01:06:41;;;;;;;7.80;3.67;;;;;;;-0.28;48.94;99565.98;1747403;80;21132;-56
2022/02/02 01:19:35;;;;;;;6.62;2.80;;;;;;;-0.43;48.98;99547.34;1771592;78;21037;-57
2022/02/02 01:22:14;;;;;;;9.13;3.33;;;;;;;-0.44;48.98;99549.53;1769785;80;21101;-57
2022/02/02 01:29:56;;;;;;;6.53;2.83;;;;;;;-0.54;48.96;99542.66;1773902;78;22340;-57
2022/02/02 01:32:24;;;;;;;7.15;2.72;;;;;;;-0.54;48.96;99542.66;1769424;78;21125;-57
2022/02/02 01:34:50;;;;;;;7.15;3.10;;;;;;;-0.53;49.20;99543.53;1782231;78;21363;-57
2022/02/02 01:37:19;;;;;;;8.55;3.83;;;;;;;-0.54;49.25;99543.13;1775970;80;21038;-57
2022/02/02 01:39:50;;;;;;;11.38;3.60;;;;;;;-0.57;49.43;99537.20;1751156;79;21912;-56
2022/02/02 01:42:17;;;;;;;9.60;3.62;;;;;;;-0.54;49.54;99540.55;1769716;78;21189;-57
2022/02/02 01:44:58;;;;;;;10.65;4.28;;;;;;;-0.52;49.50;99537.42;1778749;78;21042;-56
2022/02/02 01:47:17;;;;;;;8.93;3.80;;;;;;;-0.58;49.78;99530.35;1770250;78;21047;-57
2022/02/02 01:50:14;;;;;;;10.32;4.95;;;;;;;-0.58;49.48;99534.23;1780865;78;21492;-58
2022/02/02 01:55:04;;;;;;;8.03;3.92;;;;;;;-0.57;49.60;99529.45;1765690;78;21147;-58
2022/02/02 02:00:15;;;;;;;10.05;4.45;;;;;;;-0.61;49.65;99530.95;1772288;78;21739;-58
2022/02/02 02:02:42;;;;;;;8.50;4.40;;;;;;;-0.63;49.69;99521.16;1776939;78;21574;-57
2022/02/02 02:05:09;;;;;;;8.00;3.67;;;;;;;-0.64;49.63;99520.33;1772270;78;22094;-57
2022/02/02 02:07:37;;;;;;;12.80;4.47;;;;;;;-0.63;49.69;99516.81;1773754;78;21069;-56
2022/02/02 02:10:05;;;;;;;9.83;4.03;;;;;;;-0.69;49.58;99509.38;1765327;78;21085;-58
2022/02/02 02:12:45;;;;;;;7.12;3.65;;;;;;;-0.69;49.58;99509.38;1774438;78;21060;-57
2022/02/02 02:15:07;;;;;;;9.45;3.45;;;;;;;-0.68;49.62;99510.20;1768651;78;21066;-57
2022/02/02 02:17:34;;;;;;;9.95;4.47;;;;;;;-0.69;49.61;99507.23;1768043;79;21048;-56
2022/02/02 02:20:00;;;;;;;9.78;4.33;;;;;;;-0.75;49.59;99502.73;1749027;79;21205;-57
2022/02/02 02:22:28;;;;;;;8.03;4.30;;;;;;;-0.76;49.42;99507.97;1779004;78;21070;-57
2022/02/02 02:24:54;;;;;;;10.20;4.10;;;;;;;-0.76;49.42;99507.97;1775936;78;21007;-57
2022/02/02 02:27:23;;;;;;;7.97;3.20;;;;;;;-0.80;49.56;99511.63;1777963;78;21109;-57
2022/02/02 02:30:05;;;;;;;10.88;4.58;;;;;;;-0.86;49.64;99505.45;1773706;78;21081;-57
2022/02/02 02:55:48;;;;;;;11.03;4.80;;;;;;;-0.95;49.84;99490.76;1749778;80;21029;-57
2022/02/02 02:56:45;;;;;;;12.25;5.03;;;;;;;-1.19;50.30;99473.84;1774015;78;21081;-56
2022/02/02 02:59:15;;;;;;;10.08;4.45;;;;;;;-1.29;50.33;99470.84;1779419;78;21152;-56
2022/02/02 03:34:46;;;;;;;9.53;4.72;;;;;;;-1.61;50.76;99456.83;1773792;78;21042;-58
2022/02/02 04:04:24;;;;;;;8.70;4.72;;;;;;;-1.64;50.94;99456.49;1761341;78;22522;-57
2022/02/02 04:06:58;;;;;;;9.05;4.62;;;;;;;-1.64;50.84;99459.53;1737951;80;21899;-56
2022/02/02 04:09:13;;;;;;;9.93;4.55;;;;;;;-1.67;50.92;99456.62;1741900;78;21049;-56
2022/02/02 04:11:50;;;;;;;10.85;4.33;;;;;;;-1.69;51.15;99463.60;1768708;78;21050;-56
2022/02/02 04:54:30;;;;;;;10.03;5.53;;;;;;;-1.75;51.63;99466.02;1773850;78;21151;-56
2022/02/02 04:59:54;;;;;;;12.50;5.20;;;;;;;-1.69;51.67;99466.18;1753146;78;21470;-58
2022/02/02 05:07:22;;;;;;;16.70;6.08;;;;;;;-1.68;51.61;99464.00;1774334;78;21145;-56
2022/02/02 05:40:52;;;;;;;20.13;7.67;;;;;;;-1.66;51.46;99462.18;1771655;78;21574;-54
2022/02/02 05:52:18;;;;;;;9.73;4.50;;;;;;;-1.71;51.95;99485.59;1711645;81;21069;-55
2022/02/02 05:54:45;;;;;;;10.68;4.70;;;;;;;-1.69;51.81;99473.45;1701437;82;21064;-55
2022/02/02 05:57:13;;;;;;;11.10;5.08;;;;;;;-1.65;51.71;99482.36;1761800;79;21065;-56
2022/02/02 05:59:42;;;;;;;12.70;4.53;;;;;;;-1.67;51.59;99473.39;1757863;79;21453;-57
2022/02/02 06:02:13;;;;;;;9.93;4.33;;;;;;;-1.66;51.71;99479.38;1760449;79;21122;-59
2022/02/02 06:04:46;;;;;;;8.20;4.25;;;;;;;-1.61;51.81;99483.91;1754200;79;21089;-59
2022/02/02 06:07:15;;;;;;;10.80;4.25;;;;;;;-1.59;51.86;99489.83;1758250;79;21074;-58
2022/02/02 06:09:49;;;;;;;10.40;4.05;;;;;;;-1.56;51.79;99490.53;1730658;80;20979;-58
2022/02/02 06:12:18;;;;;;;10.15;3.55;;;;;;;-1.45;51.62;99487.45;1751104;79;21136;-58
2022/02/02 06:14:45;;;;;;;10.70;3.70;;;;;;;-1.45;51.62;99487.45;1759738;79;21065;-59
2022/02/02 06:17:12;;;;;;;9.03;3.87;;;;;;;-1.42;51.65;99489.91;1760051;79;21003;-57
2022/02/02 06:19:39;;;;;;;8.53;4.25;;;;;;;-1.31;51.32;99479.12;1737137;79;21118;-57
2022/02/02 06:22:19;;;;;;;8.68;3.60;;;;;;;-1.31;51.32;99479.12;1759859;79;21149;-57
2022/02/02 06:24:49;;;;;;;6.87;2.98;;;;;;;-1.30;51.32;99480.77;1715566;79;21122;-57
2022/02/02 06:27:23;;;;;;;10.08;3.17;;;;;;;-1.28;51.41;99478.95;1768353;79;21032;-58
2022/02/02 06:30:07;;;;;;;11.10;3.98;;;;;;;-1.24;51.37;99469.34;1766346;79;20955;-58
2022/02/02 06:32:49;;;;;;;9.40;3.12;;;;;;;-1.18;51.30;99465.17;1738979;79;20978;-58
2022/02/02 06:35:17;;;;;;;7.25;3.17;;;;;;;-1.09;51.12;99462.61;1762258;79;21923;-59
2022/02/02 06:37:44;;;;;;;11.60;3.60;;;;;;;-1.04;50.91;99474.42;1739059;79;21738;-59
2022/02/02 06:40:11;;;;;;;8.13;3.62;;;;;;;-1.01;50.82;99467.83;1754642;79;21706;-58
2022/02/02 06:42:38;;;;;;;7.85;3.27;;;;;;;-0.98;50.82;99473.28;1764431;79;20920;-58
2022/02/02 06:45:05;;;;;;;6.78;3.35;;;;;;;-0.95;50.81;99471.39;1760212;79;21491;-58
2022/02/02 06:47:34;;;;;;;7.08;2.98;;;;;;;-0.87;50.78;99467.63;1756382;79;21088;-58
2022/02/02 06:50:08;;;;;;;10.50;3.27;;;;;;;-0.79;50.64;99474.53;1739151;80;21267;-58
2022/02/02 06:52:47;;;;;;;9.58;3.72;;;;;;;-0.74;50.60;99475.14;1740139;80;20984;-57
2022/02/02 06:55:28;;;;;;;11.48;4.22;;;;;;;-0.67;50.51;99473.96;1746074;79;21148;-57
2022/02/02 06:58:32;;;;;;;8.18;4.10;;;;;;;-0.62;50.44;99478.91;1754402;79;21616;-57
2022/02/02 07:01:10;;;;;;;9.75;4.65;;;;;;;-0.53;50.18;99475.05;1678367;79;21062;-59
2022/02/02 07:04:01;;;;;;;9.65;3.98;;;;;;;-0.53;50.18;99475.05;1759377;79;22500;-57
2022/02/02 07:06:27;;;;;;;8.93;4.47;;;;;;;-0.42;50.17;99474.89;1767554;79;20984;-58
2022/02/02 07:11:27;;;;;;;9.15;3.30;;;;;;;-0.26;49.89;99469.79;1728854;80;21133;-58
2022/02/02 07:13:59;;;;;;;10.28;3.65;;;;;;;-0.20;49.71;99463.03;1750321;79;22313;-58
2022/02/02 07:16:41;;;;;;;7.08;3.47;;;;;;;-0.09;49.50;99466.34;1761033;79;21909;-58
2022/02/02 07:19:10;;;;;;;9.90;4.08;;;;;;;-0.01;49.27;99467.27;1759002;79;21055;-58
2022/02/02 07:31:57;;;;;;;7.78;3.27;;;;;;;0.39;48.57;99462.62;1757811;79;21036;-57
2022/02/02 07:33:57;;;;;;;8.65;3.90;;;;;;;0.47;48.43;99463.05;1729164;80;21068;-58
2022/02/02 07:36:31;;;;;;;10.03;4.42;;;;;;;0.55;48.19;99465.21;1759227;79;21055;-57
2022/02/02 07:39:08;;;;;;;9.85;4.75;;;;;;;0.60;48.20;99464.98;1715152;79;21089;-57
2022/02/02 07:41:37;;;;;;;15.08;6.30;;;;;;;0.66;48.20;99464.19;1737502;79;21088;-58
2022/02/02 07:44:14;;;;;;;13.83;5.90;;;;;;;0.70;48.24;99459.67;1759156;79;21086;-57
2022/02/02 07:46:38;;;;;;;11.60;5.80;;;;;;;0.74;48.07;99464.61;1740126;79;21042;-60
2022/02/02 07:49:08;;;;;;;10.40;5.55;;;;;;;0.80;47.99;99467.79;1735649;79;21078;-60
2022/02/02 07:51:37;;;;;;;14.38;5.10;;;;;;;0.87;48.02;99467.35;1759872;79;21828;-59
2022/02/02 07:54:08;;;;;;;11.40;5.42;;;;;;;0.90;48.23;99462.02;1731633;80;21062;-59
2022/02/02 07:56:42;;;;;;;10.15;5.67;;;;;;;0.92;48.09;99467.11;1760030;79;21052;-58
2022/02/02 07:59:19;;;;;;;9.83;6.03;;;;;;;0.97;48.06;99465.56;1763790;79;21060;-58
2022/02/02 08:01:44;;;;;;;13.40;7.70;;;;;;;1.03;48.06;99456.17;1759241;79;21066;-59
2022/02/02 08:04:11;;;;;;;16.40;8.98;;;;;;;1.06;48.13;99451.66;1752032;79;21069;-56
2022/02/02 08:06:41;;;;;;;16.55;8.15;;;;;;;1.13;48.04;99449.56;1720921;80;21137;-57
2022/02/02 08:09:12;;;;;;;21.25;9.38;;;;;;;1.21;48.05;99455.15;1725940;81;21180;-57
2022/02/02 08:11:38;;;;;;;21.45;8.55;;;;;;;1.29;47.99;99458.14;1724645;81;21607;-56
2022/02/02 08:14:04;;;;;;;14.98;7.28;;;;;;;1.33;48.05;99449.73;1697080;82;21099;-56
2022/02/02 08:16:36;;;;;;;19.17;7.92;;;;;;;1.38;48.14;99453.34;1697927;82;21130;-56
2022/02/02 08:19:03;;;;;;;17.73;8.45;;;;;;;1.40;48.38;99449.75;1698280;82;21196;-57
2022/02/02 08:21:31;;;;;;;18.75;8.28;;;;;;;1.45;48.51;99450.79;1696168;82;21180;-57
2022/02/02 08:23:57;;;;;;;15.38;7.25;;;;;;;1.50;48.48;99450.06;1692741;82;20996;-57
2022/02/02 08:26:24;;;;;;;15.23;7.25;;;;;;;1.57;48.39;99451.38;1697935;82;21133;-57
2022/02/02 08:28:52;;;;;;;14.03;6.60;;;;;;;1.61;48.39;99441.18;1671660;82;21113;-58
2022/02/02 08:31:18;;;;;;;11.57;6.00;;;;;;;1.64;48.48;99442.30;1696529;82;21156;-57
2022/02/02 08:33:48;;;;;;;13.10;7.03;;;;;;;1.75;48.37;99436.51;1695692;82;21162;-57
2022/02/02 08:36:16;;;;;;;11.83;6.47;;;;;;;1.84;48.29;99432.06;1697008;82;21160;-57
2022/02/02 08:43:57;;;;;;;13.48;7.05;;;;;;;2.26;47.85;99432.18;1740703;79;21157;-56
2022/02/02 08:46:29;;;;;;;14.65;6.03;;;;;;;2.33;47.86;99433.47;1759863;80;21084;-57
2022/02/02 08:48:52;;;;;;;12.20;6.37;;;;;;;2.37;47.77;99431.07;1767234;79;21073;-57
2022/02/02 08:51:20;;;;;;;14.00;5.53;;;;;;;2.35;47.78;99421.22;1768708;80;21065;-57
2022/02/02 08:58:43;;;;;;;14.50;6.35;;;;;;;2.54;47.85;99425.28;1777360;79;21012;-57
2022/02/02 09:01:13;;;;;;;12.35;6.37;;;;;;;2.57;47.83;99428.98;1770268;78;21031;-57
2022/02/02 09:06:22;;;;;;;9.73;5.93;;;;;;;2.70;48.00;99424.70;1772667;78;21513;-57
2022/02/02 09:08:51;;;;;;;9.45;5.30;;;;;;;2.82;47.84;99431.36;1771367;79;21488;-57
2022/02/02 09:25:11;;;;;;;10.93;5.45;;;;;;;3.29;48.21;99398.87;1774395;78;21077;-57
2022/02/02 09:35:44;;;;;;;11.93;6.50;;;;;;;3.52;47.90;99381.27;1775147;78;23353;-57
2022/02/02 09:38:12;;;;;;;14.93;7.03;;;;;;;3.53;47.98;99382.10;1774267;78;21519;-56
2022/02/02 09:43:18;;;;;;;14.47;6.25;;;;;;;3.64;48.10;99370.99;1764514;80;21132;-57
2022/02/02 09:45:50;;;;;;;13.58;5.60;;;;;;;3.67;47.91;99365.11;1769948;79;21055;-57
2022/02/02 09:48:26;;;;;;;13.25;5.90;;;;;;;3.71;47.80;99356.62;1744665;78;21042;-57
2022/02/02 09:50:50;;;;;;;11.40;5.75;;;;;;;3.77;47.88;99352.80;1761016;79;21700;-57
2022/02/02 09:53:20;;;;;;;9.53;4.42;;;;;;;3.82;47.74;99346.33;1736915;79;21114;-57
2022/02/02 09:56:02;;;;;;;9.85;4.78;;;;;;;3.87;47.73;99338.21;1760941;79;21101;-58
2022/02/02 09:58:56;;;;;;;9.03;4.70;;;;;;;3.94;47.70;99337.31;1761158;79;22329;-57
2022/02/02 10:07:50;;;;;;;8.83;4.45;;;;;;;4.03;47.65;99322.34;1755336;79;21007;-57
2022/02/02 10:13:22;;;;;;;14.58;5.00;;;;;;;4.03;48.13;99315.84;1762463;79;20977;-58
2022/02/02 10:15:47;;;;;;;9.13;4.83;;;;;;;4.10;48.00;99327.48;1691302;82;21047;-56
2022/02/02 10:18:20;;;;;;;11.15;5.00;;;;;;;4.14;47.96;99324.22;1726943;81;21027;-57
2022/02/02 10:20:52;;;;;;;9.68;5.15;;;;;;;4.16;48.31;99321.85;1723807;80;21629;-57
2022/02/02 10:23:32;;;;;;;10.60;5.22;;;;;;;4.21;48.47;99324.95;1694603;82;21082;-58
2022/02/02 10:26:19;;;;;;;11.08;4.92;;;;;;;4.28;48.35;99317.55;1729452;80;21130;-58
2022/02/02 10:28:46;;;;;;;10.63;4.97;;;;;;;4.26;48.15;99321.56;1729563;82;21556;-57
2022/02/02 10:31:12;;;;;;;12.50;5.50;;;;;;;4.22;48.55;99320.57;1724928;82;21086;-57
2022/02/02 10:33:39;;;;;;;12.55;5.17;;;;;;;4.19;48.71;99319.52;1728791;81;21047;-57
2022/02/02 10:36:17;;;;;;;10.03;5.15;;;;;;;4.17;48.93;99323.97;1726586;81;21098;-57
2022/02/02 10:38:49;;;;;;;8.80;4.45;;;;;;;4.16;49.16;99313.22;1760862;79;21468;-56
2022/02/02 10:43:54;;;;;;;9.83;5.65;;;;;;;4.22;49.54;99305.80;1761368;79;21712;-56
2022/02/02 10:46:21;;;;;;;;;;;;;;;4.21;49.20;99299.41;1765611;79;21078;-59
2022/02/02 10:48:54;;;;;;;9.93;5.05;;;;;;;4.16;49.66;99304.92;1731363;80;20211;-58
2022/02/02 10:51:21;;;;;;;14.07;5.33;;;;;;;4.09;50.02;99303.70;1760959;79;21104;-59
2022/02/02 10:54:04;;;;;;;10.85;5.90;;;;;;;4.11;50.11;99297.91;1764221;80;21050;-58
2022/02/02 10:56:30;;;;;;;13.78;6.30;;;;;;;4.16;50.25;99287.18;1761266;79;21044;-58
2022/02/02 11:06:42;;;;;;;11.45;6.42;;;;;;;4.32;50.62;99264.77;1759850;79;21899;-58
2022/02/02 11:09:11;;;;;;;9.93;5.35;;;;;;;4.33;50.73;99264.66;1765127;79;21677;-58
2022/02/02 11:11:50;;;;;;;12.55;5.42;;;;;;;4.35;50.87;99261.95;1757176;79;21071;-58
2022/02/02 11:14:41;;;;;;;11.03;6.22;;;;;;;4.37;50.99;99264.81;1766430;79;20999;-57
2022/02/02 11:17:23;;;;;;;13.85;5.35;;;;;;;4.38;51.14;99252.62;1763437;79;21069;-58
2022/02/02 11:19:52;;;;;;;13.88;6.65;;;;;;;4.43;51.26;99258.32;1761727;79;21190;-58
2022/02/02 11:22:38;;;;;;;12.40;5.70;;;;;;;4.45;51.33;99255.13;1761038;79;21090;-59
2022/02/02 14:44:28;;;;;;;14.85;6.85;;;;;;;3.56;56.20;99288.26;1795591;77;22601;-58
2022/02/02 14:52:20;;;;;;;15.85;6.97;;;;;;;3.57;56.03;99298.22;1769524;77;21097;-59
2022/02/02 14:55:11;;;;;;;16.90;6.47;;;;;;;3.56;56.11;99304.34;1765506;78;21019;-59
2022/02/02 15:32:01;;;;;;;12.05;5.58;;;;;;;3.13;57.17;99302.40;1778111;78;21043;-58
2022/02/02 15:34:50;;;;;;;18.75;6.30;;;;;;;3.12;57.22;99311.12;1711931;81;21056;-60
2022/02/02 15:39:42;;;;;;;11.12;6.17;;;;;;;3.11;57.29;99313.82;1735637;80;21051;-60
2022/02/02 15:45:02;;;;;;;11.50;6.10;;;;;;;3.08;57.36;99308.37;1717691;81;21107;-58
2022/02/02 15:58:10;;;;;;;12.65;6.78;;;;;;;3.00;57.54;99321.03;1760917;79;21106;-59
2022/02/02 16:03:15;;;;;;;13.50;6.35;;;;;;;2.86;57.90;99318.49;1760966;79;21062;-58
2022/02/02 16:05:49;;;;;;;13.62;6.95;;;;;;;2.85;58.02;99320.27;1773240;79;21031;-58
2022/02/02 16:08:15;;;;;;;11.20;6.87;;;;;;;2.86;58.12;99327.14;1760502;79;21086;-58
2022/02/02 16:13:34;;;;;;;14.90;7.37;;;;;;;2.83;58.13;99326.52;1762246;79;21103;-61
2022/02/02 16:16:11;;;;;;;15.85;7.42;;;;;;;2.82;58.17;99327.44;1717129;81;22508;-58
2022/02/02 16:37:09;;;;;;;16.23;9.65;;;;;;;2.74;58.51;99336.56;1780481;78;21067;-59
2022/02/02 16:39:39;;;;;;;13.13;9.45;;;;;;;2.71;58.65;99330.73;1785134;78;21000;-59
2022/02/02 16:44:47;;;;;;;18.00;9.80;;;;;;;2.66;58.76;99332.33;1782409;79;21749;-58
2022/02/02 16:47:14;;;;;;;18.52;10.30;;;;;;;2.60;58.90;99330.11;1779494;78;21147;-60
2022/02/02 16:49:41;;;;;;;18.15;9.60;;;;;;;2.50;59.09;99329.85;1763737;79;22011;-58
2022/02/02 16:52:07;;;;;;;22.13;10.43;;;;;;;2.47;59.31;99338.31;1789591;78;21266;-58
2022/02/02 16:54:39;;;;;;;21.75;11.12;;;;;;;2.46;59.54;99339.26;1781475;78;21063;-57
2022/02/02 17:33:09;;;;;;;19.07;10.70;;;;;;;2.67;59.67;99355.22;1778671;78;21062;-59
2022/02/02 17:34:54;;;;;;;24.30;12.13;;;;;;;2.67;59.72;99346.13;1749657;78;21077;-60
2022/02/02 17:58:04;;;;;;;21.27;12.65;;;;;;;2.75;59.79;99340.80;1780167;78;21003;-59
2022/02/02 18:12:36;;;;;;;18.95;11.75;;;;;;;2.72;60.26;99334.54;1785083;78;21019;-59
2022/02/02 18:20:31;;;;;;;19.30;11.90;;;;;;;2.79;60.38;99342.73;1761113;79;22705;-59
2022/02/02 18:23:03;;;;;;;19.50;10.72;;;;;;;2.79;60.31;99347.49;1758117;78;21039;-60
2022/02/02 18:25:31;;;;;;;16.95;10.72;;;;;;;2.78;60.40;99347.11;1780568;78;21099;-58
2022/02/02 18:28:02;;;;;;;20.37;10.68;;;;;;;2.78;60.42;99349.70;1777777;78;21067;-60
2022/02/02 18:33:13;;;;;;;20.30;12.05;;;;;;;2.75;60.66;99351.67;1783732;78;22302;-59
2022/02/02 18:35:33;;;;;;;19.30;11.28;;;;;;;2.74;60.75;99354.75;1753530;79;21062;-59
2022/02/02 18:48:46;;;;;;;;;;;;;;;2.79;60.98;99347.94;1785731;78;21559;-59
2022/02/02 18:56:35;;;;;;;20.37;10.55;;;;;;;2.85;61.07;99349.33;1782865;78;21165;-59
2022/02/02 18:59:02;;;;;;;22.50;11.38;;;;;;;2.88;60.99;99346.53;1777056;78;21474;-59
2022/02/02 19:04:13;;;;;;;25.60;11.00;;;;;;;2.90;61.03;99345.95;1784759;78;20976;-59
2022/02/02 19:53:42;;;;;;;19.98;9.88;;;;;;;2.95;61.75;99385.00;1788733;78;21951;-60
2022/02/02 19:55:39;;;;;;;14.87;8.40;;;;;;;2.96;61.73;99376.75;1739652;81;21099;-60
2022/02/02 20:11:42;;;;;;;20.48;9.48;;;;;;;3.03;61.56;99383.69;1781684;78;22385;-59
2022/02/02 20:14:09;;;;;;;14.45;9.23;;;;;;;3.03;61.60;99380.62;1776222;79;21063;-60
2022/02/02 20:16:36;;;;;;;17.17;9.03;;;;;;;3.02;61.59;99380.72;1779399;78;21082;-60
2022/02/02 20:19:05;;;;;;;15.20;8.83;;;;;;;3.02;61.60;99380.72;1780611;78;21200;-59
2022/02/02 20:21:34;;;;;;;16.70;9.25;;;;;;;3.05;61.67;99372.25;1778933;78;21528;-60
2022/02/02 20:24:01;;;;;;;16.62;8.30;;;;;;;3.08;61.48;99372.53;1768447;78;21153;-59
2022/02/02 20:26:29;;;;;;;17.42;9.50;;;;;;;3.09;61.48;99374.17;1784435;78;21047;-61
2022/02/02 20:28:59;;;;;;;16.80;9.43;;;;;;;3.09;61.51;99379.38;1762494;79;21055;-59
2022/02/02 20:31:24;;;;;;;16.27;8.60;;;;;;;3.09;61.59;99379.38;1787140;78;21099;-60
2022/02/02 20:33:51;;;;;;;16.90;8.65;;;;;;;3.08;61.54;99381.15;1777924;78;21043;-59
2022/02/02 20:36:17;;;;;;;17.37;10.40;;;;;;;3.08;61.59;99382.92;1786928;78;21142;-59
2022/02/02 20:38:44;;;;;;;15.45;8.25;;;;;;;3.10;61.50;99383.65;1759712;79;21048;-59
2022/02/02 20:41:11;;;;;;;17.20;8.90;;;;;;;3.09;61.55;99393.67;1766366;78;21199;-60
2022/02/02 20:43:49;;;;;;;18.00;8.25;;;;;;;3.06;61.53;99391.27;1785182;78;21022;-58
2022/02/02 21:08:43;;;;;;;15.78;9.43;;;;;;;3.14;61.57;99398.10;1780573;78;21075;-60
2022/02/02 21:10:11;;;;;;;15.35;9.08;;;;;;;3.13;61.50;99404.25;1744165;79;22408;-59
2022/02/02 21:15:28;;;;;;;13.40;8.58;;;;;;;3.13;61.55;99393.86;1782609;78;21087;-59
2022/02/02 21:17:56;;;;;;;15.25;7.67;;;;;;;3.16;61.52;99398.38;1782521;78;21118;-59
2022/02/02 21:20:30;;;;;;;11.75;7.37;;;;;;;3.19;61.60;99404.31;1785265;78;21028;-58
2022/02/02 21:22:58;;;;;;;18.27;8.33;;;;;;;3.23;61.52;99404.02;1780082;78;21118;-58
2022/02/02 21:27:57;;;;;;;16.20;7.57;;;;;;;3.31;61.32;99403.50;1783628;78;21010;-60
2022/02/02 21:30:23;;;;;;;13.83;8.08;;;;;;;3.33;61.25;99405.55;1786258;78;21010;-60
2022/02/02 21:32:51;;;;;;;14.55;7.20;;;;;;;3.36;61.13;99405.33;1766625;79;21220;-59
2022/02/02 21:35:17;;;;;;;16.70;7.95;;;;;;;3.35;60.93;99414.08;1787387;78;22232;-59
2022/02/02 21:37:50;;;;;;;12.05;7.05;;;;;;;3.30;60.92;99419.58;1778828;79;21651;-59
2022/02/02 21:40:18;;;;;;;15.70;7.90;;;;;;;3.24;61.11;99421.73;1760075;78;20980;-59
2022/02/02 21:42:45;;;;;;;15.60;7.78;;;;;;;3.28;61.08;99419.33;1784982;78;22454;-59
2022/02/02 21:45:12;;;;;;;17.25;8.48;;;;;;;3.32;61.17;99416.88;1765154;79;21031;-60
2022/02/02 21:47:39;;;;;;;15.83;9.10;;;;;;;3.34;61.25;99420.20;1768290;79;23278;-60
2022/02/02 21:50:11;;;;;;;16.27;8.98;;;;;;;3.35;61.18;99420.58;1749309;80;21093;-60
2022/02/02 21:52:37;;;;;;;14.05;7.65;;;;;;;3.32;61.11;99422.91;1744908;79;21125;-59
2022/02/02 21:55:05;;;;;;;14.20;9.15;;;;;;;3.31;61.11;99425.16;1749583;80;21039;-59
2022/02/02 22:00:11;;;;;;;14.80;8.23;;;;;;;3.15;61.35;99425.30;1793753;77;22299;-59
2022/02/02 22:02:41;;;;;;;15.05;7.90;;;;;;;3.18;61.18;99431.23;1778315;79;20967;-59
2022/02/02 22:05:11;;;;;;;20.10;9.68;;;;;;;3.11;61.31;99423.84;1790984;78;21163;-60
2022/02/02 22:07:37;;;;;;;12.73;8.03;;;;;;;3.09;61.19;99427.46;1785472;78;20951;-59
2022/02/02 22:10:07;;;;;;;17.48;9.68;;;;;;;3.05;61.34;99435.10;1782117;78;21040;-59
2022/02/02 22:12:37;;;;;;;16.57;8.98;;;;;;;3.02;61.44;99436.11;1771833;78;21031;-58
2022/02/02 22:15:07;;;;;;;17.27;8.73;;;;;;;3.01;61.54;99440.96;1780439;79;20928;-58
2022/02/02 22:18:25;;;;;;;17.52;8.48;;;;;;;2.93;61.92;99444.52;1858283;74;22626;-59
2022/02/02 22:20:55;;;;;;;17.37;9.30;;;;;;;3.01;61.66;99439.66;1846939;75;20989;-59
2022/02/02 22:26:03;;;;;;;18.62;9.70;;;;;;;2.91;61.97;99446.38;1758002;79;22734;-60
2022/02/02 22:31:19;;;;;;;17.12;9.03;;;;;;;2.95;61.86;99450.44;1868486;74;22834;-59
2022/02/02 22:33:46;;;;;;;17.42;9.25;;;;;;;2.96;61.65;99452.12;1843324;75;21042;-59
2022/02/02 22:36:13;;;;;;;19.27;9.73;;;;;;;2.93;61.79;99451.83;1852856;75;22796;-59
2022/02/02 22:38:42;;;;;;;16.95;9.18;;;;;;;2.95;61.80;99453.04;1848262;75;20990;-59
2022/02/02 22:41:10;;;;;;;15.88;8.40;;;;;;;2.97;61.73;99457.19;1811766;77;21089;-59
2022/02/02 22:43:44;;;;;;;16.10;9.83;;;;;;;2.95;61.75;99463.44;1762922;78;21057;-60
2022/02/02 22:46:05;;;;;;;13.93;8.48;;;;;;;2.96;61.82;99472.44;1792006;78;21116;-59
2022/02/02 22:48:32;;;;;;;23.73;9.98;;;;;;;3.00;61.81;99470.95;1762977;79;20990;-59
2022/02/02 22:50:59;;;;;;;21.25;10.15;;;;;;;3.00;61.82;99473.07;1791385;78;21204;-57
2022/02/02 22:53:26;;;;;;;16.80;9.08;;;;;;;3.00;61.75;99471.77;1796433;78;21080;-59
2022/02/02 22:55:53;;;;;;;18.92;9.53;;;;;;;3.03;61.76;99479.86;1791384;78;21033;-59
2022/02/02 22:58:20;;;;;;;17.23;9.35;;;;;;;3.02;61.68;99481.59;1761420;78;21057;-59
2022/02/02 23:00:48;;;;;;;18.75;9.45;;;;;;;3.03;61.78;99482.45;1789044;78;21211;-59
2022/02/02 23:03:17;;;;;;;17.87;9.68;;;;;;;3.07;61.71;99478.72;1775213;78;21982;-59
2022/02/02 23:05:46;;;;;;;16.52;9.70;;;;;;;3.05;61.71;99473.61;1782573;78;21016;-59
2022/02/02 23:08:14;;;;;;;14.83;8.95;;;;;;;3.05;61.68;99477.51;1785517;78;21050;-59
2022/02/02 23:10:43;;;;;;;16.07;9.38;;;;;;;3.05;61.70;99482.71;1779250;78;21601;-59
2022/02/02 23:13:10;;;;;;;15.93;8.25;;;;;;;3.06;61.68;99479.19;1759566;79;21045;-59
2022/02/02 23:18:18;;;;;;;15.78;8.85;;;;;;;3.02;61.67;99482.08;1790594;78;21617;-59
2022/02/02 23:20:47;;;;;;;14.05;8.78;;;;;;;2.96;61.83;99480.23;1789901;78;21074;-58
2022/02/02 23:23:15;;;;;;;15.40;8.18;;;;;;;2.96;61.83;99482.00;1784093;78;21088;-58
2022/02/02 23:25:41;;;;;;;15.50;8.63;;;;;;;2.94;61.90;99483.40;1763043;78;21629;-58
2022/02/02 23:28:09;;;;;;;13.70;7.05;;;;;;;2.95;61.83;99492.84;1744790;79;21144;-61
2022/02/02 23:30:35;;;;;;;15.55;9.08;;;;;;;2.90;61.90;99488.41;1790492;78;22027;-59
2022/02/02 23:33:02;;;;;;;12.75;7.72;;;;;;;2.90;61.93;99495.38;1762074;79;21575;-59
2022/02/02 23:35:29;;;;;;;15.85;8.20;;;;;;;2.87;62.08;99494.26;1699063;79;21062;-59
2022/02/02 23:37:56;;;;;;;18.23;10.23;;;;;;;2.89;62.07;99502.34;1794511;77;21467;-59
2022/02/02 23:40:23;;;;;;;13.65;9.00;;;;;;;2.88;62.07;99498.06;1806793;77;21018;-59
2022/02/02 23:42:49;;;;;;;15.28;8.85;;;;;;;2.87;62.15;99495.08;1812336;76;21028;-59
2022/02/02 23:45:16;;;;;;;13.18;7.97;;;;;;;2.90;62.17;99504.47;1811981;77;22086;-59
2022/02/02 23:47:46;;;;;;;14.33;8.58;;;;;;;2.90;62.12;99505.29;1847983;76;21569;-59
2022/02/02 23:50:17;;;;;;;16.97;9.53;;;;;;;2.91;62.15;99508.75;1828033;76;21114;-59
2022/02/02 23:52:51;;;;;;;18.15;9.00;;;;;;;2.93;62.13;99506.41;1850971;76;21460;-59
2022/02/02 23:55:32;;;;;;;15.72;8.88;;;;;;;2.95;62.05;99511.51;1813640;76;21054;-59
2022/02/02 23:58:03;;;;;;;23.20;9.43;;;;;;;2.96;62.05;99509.29;1833984;76;21053;-58
